sensor_id;sensor_type;location;lat;lon;timestamp;temperature;humidity
16825;DHT22;8529;48.108;-1.706;2023-07-20T00:00:10;18.80;99.90
16825;DHT22;8529;48.108;-1.706;2023-07-20T00:02:38;18.70;99.90
16825;DHT22;8529;48.108;-1.706;2023-07-20T00:05:05;18.70;99.90
16825;DHT22;8529;48.108;-1.706;2023-07-20T00:07:34;18.70;99.90
16825;DHT22;8529;48.108;-1.706;2023-07-20T00:10:01;18.70;99.90
16825;DHT22;8529;48.108;-1.706;2023-07-20T00:12:28;18.70;99.90
16825;DHT22;8529;48.108;-1.706;2023-07-20T00:14:54;18.70;99.90
16825;DHT22;8529;48.108;-1.706;2023-07-20T00:17:21;18.70;99.90
16825;DHT22;8529;48.108;-1.706;2023-07-20T00:19:48;18.60;99.90
16825;DHT22;8529;48.108;-1.706;2023-07-20T00:22:15;18.70;99.90
16825;DHT22;8529;48.108;-1.706;2023-07-20T00:24:43;18.60;99.90
16825;DHT22;8529;48.108;-1.706;2023-07-20T00:27:10;18.60;99.90
16825;DHT22;8529;48.108;-1.706;2023-07-20T00:29:37;18.60;99.90
16825;DHT22;8529;48.108;-1.706;2023-07-20T00:32:05;18.60;99.90
16825;DHT22;8529;48.108;-1.706;2023-07-20T00:34:32;18.60;99.90
16825;DHT22;8529;48.108;-1.706;2023-07-20T00:36:59;18.60;99.90
16825;DHT22;8529;48.108;-1.706;2023-07-20T00:39:26;18.60;99.90
16825;DHT22;8529;48.108;-1.706;2023-07-20T00:41:54;18.60;99.90
16825;DHT22;8529;48.108;-1.706;2023-07-20T00:44:21;18.60;99.90
16825;DHT22;8529;48.108;-1.706;2023-07-20T00:46:48;18.70;99.90
16825;DHT22;8529;48.108;-1.706;2023-07-20T00:49:15;18.70;99.90
16825;DHT22;8529;48.108;-1.706;2023-07-20T00:51:47;18.70;99.90
16825;DHT22;8529;48.108;-1.706;2023-07-20T00:54:15;18.80;99.90
16825;DHT22;8529;48.108;-1.706;2023-07-20T00:56:42;18.80;99.90
16825;DHT22;8529;48.108;-1.706;2023-07-20T00:59:11;18.80;99.90
16825;DHT22;8529;48.108;-1.706;2023-07-20T01:01:38;18.80;99.90
16825;DHT22;8529;48.108;-1.706;2023-07-20T01:04:05;18.70;99.90
16825;DHT22;8529;48.108;-1.706;2023-07-20T01:06:39;18.80;99.90
16825;DHT22;8529;48.108;-1.706;2023-07-20T01:09:13;18.70;99.90
16825;DHT22;8529;48.108;-1.706;2023-07-20T01:11:46;18.70;99.90
16825;DHT22;8529;48.108;-1.706;2023-07-20T01:14:18;18.70;99.90
16825;DHT22;8529;48.108;-1.706;2023-07-20T01:16:45;18.60;99.90
16825;DHT22;8529;48.108;-1.706;2023-07-20T01:19:13;18.60;99.90
16825;DHT22;8529;48.108;-1.706;2023-07-20T01:21:45;18.60;99.90
16825;DHT22;8529;48.108;-1.706;2023-07-20T01:24:45;18.50;99.90
16825;DHT22;8529;48.108;-1.706;2023-07-20T01:27:33;18.50;99.90
16825;DHT22;8529;48.108;-1.706;2023-07-20T01:30:16;18.50;99.90
16825;DHT22;8529;48.108;-1.706;2023-07-20T01:32:49;18.50;99.90
16825;DHT22;8529;48.108;-1.706;2023-07-20T01:35:17;18.40;99.90
16825;DHT22;8529;48.108;-1.706;2023-07-20T01:37:47;18.40;99.90
16825;DHT22;8529;48.108;-1.706;2023-07-20T01:40:14;18.30;99.90
16825;DHT22;8529;48.108;-1.706;2023-07-20T01:42:44;18.30;99.90
16825;DHT22;8529;48.108;-1.706;2023-07-20T01:45:12;18.20;99.90
16825;DHT22;8529;48.108;-1.706;2023-07-20T01:47:39;18.20;99.90
16825;DHT22;8529;48.108;-1.706;2023-07-20T01:50:08;18.20;99.90
16825;DHT22;8529;48.108;-1.706;2023-07-20T01:52:35;18.20;99.90
16825;DHT22;8529;48.108;-1.706;2023-07-20T01:55:03;18.20;99.90
16825;DHT22;8529;48.108;-1.706;2023-07-20T01:57:30;18.10;99.90
16825;DHT22;8529;48.108;-1.706;2023-07-20T01:59:56;18.10;99.90
16825;DHT22;8529;48.108;-1.706;2023-07-20T02:02:27;18.10;99.90
16825;DHT22;8529;48.108;-1.706;2023-07-20T02:04:54;18.10;99.90
16825;DHT22;8529;48.108;-1.706;2023-07-20T02:07:22;18.10;99.90
16825;DHT22;8529;48.108;-1.706;2023-07-20T02:09:49;18.00;99.90
16825;DHT22;8529;48.108;-1.706;2023-07-20T02:12:16;18.00;99.90
16825;DHT22;8529;48.108;-1.706;2023-07-20T02:14:43;18.00;99.90
16825;DHT22;8529;48.108;-1.706;2023-07-20T02:17:10;18.00;99.90
16825;DHT22;8529;48.108;-1.706;2023-07-20T02:19:37;18.10;99.90
16825;DHT22;8529;48.108;-1.706;2023-07-20T02:22:04;18.00;99.90
16825;DHT22;8529;48.108;-1.706;2023-07-20T02:24:33;17.90;99.90
16825;DHT22;8529;48.108;-1.706;2023-07-20T02:27:00;17.80;99.90
16825;DHT22;8529;48.108;-1.706;2023-07-20T02:29:27;17.80;99.90
16825;DHT22;8529;48.108;-1.706;2023-07-20T02:31:54;17.80;99.90
16825;DHT22;8529;48.108;-1.706;2023-07-20T02:34:21;17.70;99.90
16825;DHT22;8529;48.108;-1.706;2023-07-20T02:36:48;17.70;99.90
16825;DHT22;8529;48.108;-1.706;2023-07-20T02:39:15;17.70;99.90
16825;DHT22;8529;48.108;-1.706;2023-07-20T02:41:43;17.70;99.90
16825;DHT22;8529;48.108;-1.706;2023-07-20T02:44:10;17.70;99.90
16825;DHT22;8529;48.108;-1.706;2023-07-20T02:46:37;17.70;99.90
16825;DHT22;8529;48.108;-1.706;2023-07-20T02:49:03;17.70;99.90
16825;DHT22;8529;48.108;-1.706;2023-07-20T02:51:31;17.70;99.90
16825;DHT22;8529;48.108;-1.706;2023-07-20T02:53:58;17.70;99.90
16825;DHT22;8529;48.108;-1.706;2023-07-20T02:56:25;17.60;99.90
16825;DHT22;8529;48.108;-1.706;2023-07-20T02:58:53;17.60;99.90
16825;DHT22;8529;48.108;-1.706;2023-07-20T03:01:20;17.60;99.90
16825;DHT22;8529;48.108;-1.706;2023-07-20T03:03:47;17.70;99.90
16825;DHT22;8529;48.108;-1.706;2023-07-20T03:06:14;17.60;99.90
16825;DHT22;8529;48.108;-1.706;2023-07-20T03:08:41;17.60;99.90
16825;DHT22;8529;48.108;-1.706;2023-07-20T03:11:13;17.60;99.90
16825;DHT22;8529;48.108;-1.706;2023-07-20T03:13:40;17.60;99.90
16825;DHT22;8529;48.108;-1.706;2023-07-20T03:16:09;17.60;99.90
16825;DHT22;8529;48.108;-1.706;2023-07-20T03:18:37;17.50;99.90
16825;DHT22;8529;48.108;-1.706;2023-07-20T03:21:04;17.50;99.90
16825;DHT22;8529;48.108;-1.706;2023-07-20T03:23:31;17.40;99.90
16825;DHT22;8529;48.108;-1.706;2023-07-20T03:25:58;17.40;99.90
16825;DHT22;8529;48.108;-1.706;2023-07-20T03:28:25;17.40;99.90
16825;DHT22;8529;48.108;-1.706;2023-07-20T03:30:53;17.40;99.90
16825;DHT22;8529;48.108;-1.706;2023-07-20T03:33:22;17.40;99.90
16825;DHT22;8529;48.108;-1.706;2023-07-20T03:35:49;17.40;99.90
16825;DHT22;8529;48.108;-1.706;2023-07-20T03:38:16;17.40;99.90
16825;DHT22;8529;48.108;-1.706;2023-07-20T03:40:49;17.40;99.90
16825;DHT22;8529;48.108;-1.706;2023-07-20T03:43:16;17.40;99.90
16825;DHT22;8529;48.108;-1.706;2023-07-20T03:45:43;17.30;99.90
16825;DHT22;8529;48.108;-1.706;2023-07-20T03:48:11;17.30;99.90
16825;DHT22;8529;48.108;-1.706;2023-07-20T03:50:39;17.20;99.90
16825;DHT22;8529;48.108;-1.706;2023-07-20T03:53:06;17.20;99.90
16825;DHT22;8529;48.108;-1.706;2023-07-20T03:55:33;17.20;99.90
16825;DHT22;8529;48.108;-1.706;2023-07-20T03:57:59;17.20;99.90
16825;DHT22;8529;48.108;-1.706;2023-07-20T04:00:27;17.20;99.90
16825;DHT22;8529;48.108;-1.706;2023-07-20T04:02:54;17.10;99.90
16825;DHT22;8529;48.108;-1.706;2023-07-20T04:05:21;17.10;99.90
16825;DHT22;8529;48.108;-1.706;2023-07-20T04:07:49;17.10;99.90
16825;DHT22;8529;48.108;-1.706;2023-07-20T04:10:17;17.10;99.90
16825;DHT22;8529;48.108;-1.706;2023-07-20T04:12:44;17.10;99.90
16825;DHT22;8529;48.108;-1.706;2023-07-20T04:15:12;17.10;99.90
16825;DHT22;8529;48.108;-1.706;2023-07-20T04:17:39;17.10;99.90
16825;DHT22;8529;48.108;-1.706;2023-07-20T04:20:07;17.10;99.90
16825;DHT22;8529;48.108;-1.706;2023-07-20T04:22:35;17.10;99.90
16825;DHT22;8529;48.108;-1.706;2023-07-20T04:25:04;17.00;99.90
16825;DHT22;8529;48.108;-1.706;2023-07-20T04:27:31;17.00;99.90
16825;DHT22;8529;48.108;-1.706;2023-07-20T04:29:58;17.00;99.90
16825;DHT22;8529;48.108;-1.706;2023-07-20T04:32:26;17.00;99.90
16825;DHT22;8529;48.108;-1.706;2023-07-20T04:34:53;17.00;99.90
16825;DHT22;8529;48.108;-1.706;2023-07-20T04:37:20;17.00;99.90
16825;DHT22;8529;48.108;-1.706;2023-07-20T04:39:46;17.00;99.90
16825;DHT22;8529;48.108;-1.706;2023-07-20T04:42:15;17.00;99.90
16825;DHT22;8529;48.108;-1.706;2023-07-20T04:44:42;17.00;99.90
16825;DHT22;8529;48.108;-1.706;2023-07-20T04:47:09;17.00;99.90
16825;DHT22;8529;48.108;-1.706;2023-07-20T04:49:36;17.10;99.90
16825;DHT22;8529;48.108;-1.706;2023-07-20T04:52:03;17.00;99.90
16825;DHT22;8529;48.108;-1.706;2023-07-20T04:54:30;17.00;99.90
16825;DHT22;8529;48.108;-1.706;2023-07-20T04:56:57;17.00;99.90
16825;DHT22;8529;48.108;-1.706;2023-07-20T04:59:25;17.00;99.90
16825;DHT22;8529;48.108;-1.706;2023-07-20T05:01:52;17.00;99.90
16825;DHT22;8529;48.108;-1.706;2023-07-20T05:04:19;17.10;99.90
16825;DHT22;8529;48.108;-1.706;2023-07-20T05:06:46;17.10;99.90
16825;DHT22;8529;48.108;-1.706;2023-07-20T05:09:13;17.20;99.90
16825;DHT22;8529;48.108;-1.706;2023-07-20T05:11:40;17.20;99.90
16825;DHT22;8529;48.108;-1.706;2023-07-20T05:14:07;17.10;99.90
16825;DHT22;8529;48.108;-1.706;2023-07-20T05:16:35;17.10;99.90
16825;DHT22;8529;48.108;-1.706;2023-07-20T05:19:02;17.10;99.90
16825;DHT22;8529;48.108;-1.706;2023-07-20T05:21:29;17.20;99.90
16825;DHT22;8529;48.108;-1.706;2023-07-20T05:23:56;17.20;99.90
16825;DHT22;8529;48.108;-1.706;2023-07-20T05:26:23;17.20;99.90
16825;DHT22;8529;48.108;-1.706;2023-07-20T05:28:50;17.20;99.90
16825;DHT22;8529;48.108;-1.706;2023-07-20T05:31:17;17.10;99.90
16825;DHT22;8529;48.108;-1.706;2023-07-20T05:33:45;17.10;99.90
16825;DHT22;8529;48.108;-1.706;2023-07-20T05:36:12;17.20;99.90
16825;DHT22;8529;48.108;-1.706;2023-07-20T05:38:39;17.20;99.90
16825;DHT22;8529;48.108;-1.706;2023-07-20T05:41:06;17.20;99.90
16825;DHT22;8529;48.108;-1.706;2023-07-20T05:43:36;17.20;99.90
16825;DHT22;8529;48.108;-1.706;2023-07-20T05:46:02;17.30;99.90
16825;DHT22;8529;48.108;-1.706;2023-07-20T05:48:30;17.30;99.90
16825;DHT22;8529;48.108;-1.706;2023-07-20T05:50:59;17.30;99.90
16825;DHT22;8529;48.108;-1.706;2023-07-20T05:53:26;17.40;99.90
16825;DHT22;8529;48.108;-1.706;2023-07-20T05:55:53;17.40;99.90
16825;DHT22;8529;48.108;-1.706;2023-07-20T05:58:20;17.40;99.90
16825;DHT22;8529;48.108;-1.706;2023-07-20T06:00:48;17.50;99.90
16825;DHT22;8529;48.108;-1.706;2023-07-20T06:03:15;17.50;99.90
16825;DHT22;8529;48.108;-1.706;2023-07-20T06:05:42;17.60;99.90
16825;DHT22;8529;48.108;-1.706;2023-07-20T06:08:10;17.60;99.90
16825;DHT22;8529;48.108;-1.706;2023-07-20T06:10:37;17.60;99.90
16825;DHT22;8529;48.108;-1.706;2023-07-20T06:13:04;17.60;99.90
16825;DHT22;8529;48.108;-1.706;2023-07-20T06:15:32;17.70;99.90
16825;DHT22;8529;48.108;-1.706;2023-07-20T06:18:01;17.70;99.90
16825;DHT22;8529;48.108;-1.706;2023-07-20T06:20:29;17.80;99.90
16825;DHT22;8529;48.108;-1.706;2023-07-20T06:22:56;17.90;99.90
16825;DHT22;8529;48.108;-1.706;2023-07-20T06:25:24;17.90;99.90
16825;DHT22;8529;48.108;-1.706;2023-07-20T06:27:51;17.90;99.90
16825;DHT22;8529;48.108;-1.706;2023-07-20T06:30:19;17.90;99.90
16825;DHT22;8529;48.108;-1.706;2023-07-20T06:32:46;18.00;99.90
16825;DHT22;8529;48.108;-1.706;2023-07-20T06:35:13;18.00;99.90
16825;DHT22;8529;48.108;-1.706;2023-07-20T06:37:40;18.00;99.90
16825;DHT22;8529;48.108;-1.706;2023-07-20T06:40:08;18.00;99.90
16825;DHT22;8529;48.108;-1.706;2023-07-20T06:42:36;18.00;99.90
16825;DHT22;8529;48.108;-1.706;2023-07-20T06:45:04;18.10;99.90
16825;DHT22;8529;48.108;-1.706;2023-07-20T06:47:31;18.10;99.90
16825;DHT22;8529;48.108;-1.706;2023-07-20T06:49:58;18.10;99.90
16825;DHT22;8529;48.108;-1.706;2023-07-20T06:52:25;18.20;99.90
16825;DHT22;8529;48.108;-1.706;2023-07-20T06:54:52;18.20;99.90
16825;DHT22;8529;48.108;-1.706;2023-07-20T06:57:19;18.40;99.90
16825;DHT22;8529;48.108;-1.706;2023-07-20T06:59:47;18.40;99.90
16825;DHT22;8529;48.108;-1.706;2023-07-20T07:02:14;18.50;99.90
16825;DHT22;8529;48.108;-1.706;2023-07-20T07:04:41;18.60;99.90
16825;DHT22;8529;48.108;-1.706;2023-07-20T07:07:08;18.60;99.90
16825;DHT22;8529;48.108;-1.706;2023-07-20T07:09:35;18.60;99.90
16825;DHT22;8529;48.108;-1.706;2023-07-20T07:12:02;18.60;99.90
16825;DHT22;8529;48.108;-1.706;2023-07-20T07:14:29;18.60;99.90
16825;DHT22;8529;48.108;-1.706;2023-07-20T07:16:57;18.70;99.90
16825;DHT22;8529;48.108;-1.706;2023-07-20T07:19:25;18.70;99.90
16825;DHT22;8529;48.108;-1.706;2023-07-20T07:21:52;18.80;99.90
16825;DHT22;8529;48.108;-1.706;2023-07-20T07:24:18;18.80;99.90
16825;DHT22;8529;48.108;-1.706;2023-07-20T07:26:45;18.40;99.90
16825;DHT22;8529;48.108;-1.706;2023-07-20T07:29:12;18.20;99.90
16825;DHT22;8529;48.108;-1.706;2023-07-20T07:31:39;18.00;99.90
16825;DHT22;8529;48.108;-1.706;2023-07-20T07:34:07;17.90;99.90
16825;DHT22;8529;48.108;-1.706;2023-07-20T07:36:34;17.90;99.90
16825;DHT22;8529;48.108;-1.706;2023-07-20T07:39:01;17.70;99.90
16825;DHT22;8529;48.108;-1.706;2023-07-20T07:41:29;17.60;99.90
16825;DHT22;8529;48.108;-1.706;2023-07-20T07:43:56;17.60;99.90
16825;DHT22;8529;48.108;-1.706;2023-07-20T07:46:23;17.70;99.90
16825;DHT22;8529;48.108;-1.706;2023-07-20T07:48:50;17.70;99.90
16825;DHT22;8529;48.108;-1.706;2023-07-20T07:51:18;17.70;99.90
16825;DHT22;8529;48.108;-1.706;2023-07-20T07:53:46;17.80;99.90
16825;DHT22;8529;48.108;-1.706;2023-07-20T07:56:14;17.90;99.90
16825;DHT22;8529;48.108;-1.706;2023-07-20T07:58:42;18.00;99.90
16825;DHT22;8529;48.108;-1.706;2023-07-20T08:01:09;18.10;99.90
16825;DHT22;8529;48.108;-1.706;2023-07-20T08:03:36;18.10;99.90
16825;DHT22;8529;48.108;-1.706;2023-07-20T08:06:03;18.20;99.90
16825;DHT22;8529;48.108;-1.706;2023-07-20T08:08:32;18.20;99.90
16825;DHT22;8529;48.108;-1.706;2023-07-20T08:10:59;18.30;99.90
16825;DHT22;8529;48.108;-1.706;2023-07-20T08:13:26;18.40;99.90
16825;DHT22;8529;48.108;-1.706;2023-07-20T08:15:53;18.40;99.90
16825;DHT22;8529;48.108;-1.706;2023-07-20T08:18:20;18.50;99.90
16825;DHT22;8529;48.108;-1.706;2023-07-20T08:20:47;18.50;99.90
16825;DHT22;8529;48.108;-1.706;2023-07-20T08:23:15;18.60;99.90
16825;DHT22;8529;48.108;-1.706;2023-07-20T08:25:43;18.60;99.90
16825;DHT22;8529;48.108;-1.706;2023-07-20T08:28:10;18.70;99.90
16825;DHT22;8529;48.108;-1.706;2023-07-20T08:30:41;18.70;99.90
16825;DHT22;8529;48.108;-1.706;2023-07-20T08:33:09;18.80;99.90
16825;DHT22;8529;48.108;-1.706;2023-07-20T08:35:36;18.90;99.90
16825;DHT22;8529;48.108;-1.706;2023-07-20T08:38:03;19.00;99.90
16825;DHT22;8529;48.108;-1.706;2023-07-20T08:40:31;19.00;99.90
16825;DHT22;8529;48.108;-1.706;2023-07-20T08:43:00;19.10;99.90
16825;DHT22;8529;48.108;-1.706;2023-07-20T08:45:28;19.10;99.90
16825;DHT22;8529;48.108;-1.706;2023-07-20T08:47:56;19.10;99.90
16825;DHT22;8529;48.108;-1.706;2023-07-20T08:50:25;19.10;99.90
16825;DHT22;8529;48.108;-1.706;2023-07-20T08:52:57;19.10;99.90
16825;DHT22;8529;48.108;-1.706;2023-07-20T08:55:25;19.10;99.90
16825;DHT22;8529;48.108;-1.706;2023-07-20T08:57:54;19.20;99.90
16825;DHT22;8529;48.108;-1.706;2023-07-20T09:00:24;19.20;99.90
16825;DHT22;8529;48.108;-1.706;2023-07-20T09:02:53;19.20;99.90
16825;DHT22;8529;48.108;-1.706;2023-07-20T09:05:22;19.20;99.90
16825;DHT22;8529;48.108;-1.706;2023-07-20T09:07:52;19.20;99.90
16825;DHT22;8529;48.108;-1.706;2023-07-20T09:10:21;19.20;99.90
16825;DHT22;8529;48.108;-1.706;2023-07-20T09:12:48;19.30;99.90
16825;DHT22;8529;48.108;-1.706;2023-07-20T09:15:15;19.40;99.90
16825;DHT22;8529;48.108;-1.706;2023-07-20T09:17:47;19.40;99.90
16825;DHT22;8529;48.108;-1.706;2023-07-20T09:20:15;19.30;99.90
16825;DHT22;8529;48.108;-1.706;2023-07-20T09:22:43;19.30;99.90
16825;DHT22;8529;48.108;-1.706;2023-07-20T09:25:11;19.30;99.90
16825;DHT22;8529;48.108;-1.706;2023-07-20T09:27:40;19.40;99.90
16825;DHT22;8529;48.108;-1.706;2023-07-20T09:30:07;19.40;99.90
16825;DHT22;8529;48.108;-1.706;2023-07-20T09:32:43;19.40;99.90
16825;DHT22;8529;48.108;-1.706;2023-07-20T09:35:15;19.50;99.90
16825;DHT22;8529;48.108;-1.706;2023-07-20T09:37:54;19.60;99.90
16825;DHT22;8529;48.108;-1.706;2023-07-20T09:40:21;19.60;99.90
16825;DHT22;8529;48.108;-1.706;2023-07-20T09:42:48;19.70;99.90
16825;DHT22;8529;48.108;-1.706;2023-07-20T09:45:18;19.80;99.90
16825;DHT22;8529;48.108;-1.706;2023-07-20T09:47:46;19.90;99.90
16825;DHT22;8529;48.108;-1.706;2023-07-20T09:50:13;20.00;99.90
16825;DHT22;8529;48.108;-1.706;2023-07-20T09:52:41;20.10;99.90
16825;DHT22;8529;48.108;-1.706;2023-07-20T09:55:10;20.20;99.90
16825;DHT22;8529;48.108;-1.706;2023-07-20T09:57:38;20.40;99.90
16825;DHT22;8529;48.108;-1.706;2023-07-20T10:00:07;20.40;99.90
16825;DHT22;8529;48.108;-1.706;2023-07-20T10:02:42;20.40;99.90
16825;DHT22;8529;48.108;-1.706;2023-07-20T10:05:12;20.40;99.90
16825;DHT22;8529;48.108;-1.706;2023-07-20T10:07:44;20.30;99.90
16825;DHT22;8529;48.108;-1.706;2023-07-20T10:10:14;20.20;99.90
16825;DHT22;8529;48.108;-1.706;2023-07-20T10:12:46;20.20;99.90
16825;DHT22;8529;48.108;-1.706;2023-07-20T10:15:18;20.10;99.90
16825;DHT22;8529;48.108;-1.706;2023-07-20T10:17:59;20.10;99.90
16825;DHT22;8529;48.108;-1.706;2023-07-20T10:20:27;20.20;99.90
16825;DHT22;8529;48.108;-1.706;2023-07-20T10:22:57;20.30;99.90
16825;DHT22;8529;48.108;-1.706;2023-07-20T10:25:24;20.50;99.90
16825;DHT22;8529;48.108;-1.706;2023-07-20T10:27:51;20.60;99.90
16825;DHT22;8529;48.108;-1.706;2023-07-20T10:30:18;20.70;99.90
16825;DHT22;8529;48.108;-1.706;2023-07-20T10:32:46;20.70;99.90
16825;DHT22;8529;48.108;-1.706;2023-07-20T10:35:15;20.80;99.90
16825;DHT22;8529;48.108;-1.706;2023-07-20T10:38:00;20.80;99.90
16825;DHT22;8529;48.108;-1.706;2023-07-20T10:40:32;20.80;99.90
16825;DHT22;8529;48.108;-1.706;2023-07-20T10:43:00;20.80;99.90
16825;DHT22;8529;48.108;-1.706;2023-07-20T10:45:42;20.80;99.90
16825;DHT22;8529;48.108;-1.706;2023-07-20T10:48:16;20.70;99.90
16825;DHT22;8529;48.108;-1.706;2023-07-20T10:50:45;20.70;99.90
16825;DHT22;8529;48.108;-1.706;2023-07-20T10:53:14;20.60;99.90
16825;DHT22;8529;48.108;-1.706;2023-07-20T10:55:42;20.60;99.90
16825;DHT22;8529;48.108;-1.706;2023-07-20T10:58:10;20.50;99.90
16825;DHT22;8529;48.108;-1.706;2023-07-20T11:00:38;20.50;99.90
16825;DHT22;8529;48.108;-1.706;2023-07-20T11:03:27;20.50;99.90
16825;DHT22;8529;48.108;-1.706;2023-07-20T11:05:56;20.50;99.90
16825;DHT22;8529;48.108;-1.706;2023-07-20T11:11:25;20.60;99.90
16825;DHT22;8529;48.108;-1.706;2023-07-20T11:13:59;20.80;99.90
16825;DHT22;8529;48.108;-1.706;2023-07-20T11:16:40;20.80;99.90
16825;DHT22;8529;48.108;-1.706;2023-07-20T11:19:14;20.90;99.90
16825;DHT22;8529;48.108;-1.706;2023-07-20T11:21:43;21.10;99.90
16825;DHT22;8529;48.108;-1.706;2023-07-20T11:24:10;21.30;99.90
16825;DHT22;8529;48.108;-1.706;2023-07-20T11:26:47;21.40;99.90
16825;DHT22;8529;48.108;-1.706;2023-07-20T11:29:15;21.50;99.90
16825;DHT22;8529;48.108;-1.706;2023-07-20T11:31:44;21.50;99.90
16825;DHT22;8529;48.108;-1.706;2023-07-20T11:34:13;21.50;99.90
16825;DHT22;8529;48.108;-1.706;2023-07-20T11:36:40;21.50;99.90
16825;DHT22;8529;48.108;-1.706;2023-07-20T11:39:09;21.50;99.90
16825;DHT22;8529;48.108;-1.706;2023-07-20T11:41:36;21.50;99.90
16825;DHT22;8529;48.108;-1.706;2023-07-20T11:44:05;21.60;99.80
16825;DHT22;8529;48.108;-1.706;2023-07-20T11:46:33;21.60;99.40
16825;DHT22;8529;48.108;-1.706;2023-07-20T11:49:00;21.60;99.00
16825;DHT22;8529;48.108;-1.706;2023-07-20T11:51:28;21.60;99.20
16825;DHT22;8529;48.108;-1.706;2023-07-20T11:53:55;21.50;98.90
16825;DHT22;8529;48.108;-1.706;2023-07-20T11:56:24;21.50;98.80
16825;DHT22;8529;48.108;-1.706;2023-07-20T11:58:53;21.50;99.20
16825;DHT22;8529;48.108;-1.706;2023-07-20T12:01:23;21.40;99.10
16825;DHT22;8529;48.108;-1.706;2023-07-20T12:03:50;21.50;99.20
16825;DHT22;8529;48.108;-1.706;2023-07-20T12:06:17;21.50;98.60
16825;DHT22;8529;48.108;-1.706;2023-07-20T12:08:44;21.50;98.80
16825;DHT22;8529;48.108;-1.706;2023-07-20T12:11:11;21.70;98.80
16825;DHT22;8529;48.108;-1.706;2023-07-20T12:13:42;21.80;98.50
16825;DHT22;8529;48.108;-1.706;2023-07-20T12:16:11;21.80;98.00
16825;DHT22;8529;48.108;-1.706;2023-07-20T12:18:40;21.90;98.00
16825;DHT22;8529;48.108;-1.706;2023-07-20T12:21:07;21.90;98.00
16825;DHT22;8529;48.108;-1.706;2023-07-20T12:23:36;21.90;98.20
16825;DHT22;8529;48.108;-1.706;2023-07-20T12:26:07;21.80;98.20
16825;DHT22;8529;48.108;-1.706;2023-07-20T12:28:38;21.80;97.60
16825;DHT22;8529;48.108;-1.706;2023-07-20T12:31:06;21.90;97.30
16825;DHT22;8529;48.108;-1.706;2023-07-20T12:33:33;21.90;96.40
16825;DHT22;8529;48.108;-1.706;2023-07-20T12:36:01;21.90;96.70
16825;DHT22;8529;48.108;-1.706;2023-07-20T12:38:28;21.90;96.70
16825;DHT22;8529;48.108;-1.706;2023-07-20T12:40:56;21.90;96.10
16825;DHT22;8529;48.108;-1.706;2023-07-20T12:43:24;21.80;96.30
16825;DHT22;8529;48.108;-1.706;2023-07-20T12:45:51;21.80;96.70
16825;DHT22;8529;48.108;-1.706;2023-07-20T12:48:18;21.80;96.90
16825;DHT22;8529;48.108;-1.706;2023-07-20T12:50:45;21.80;96.50
16825;DHT22;8529;48.108;-1.706;2023-07-20T12:53:13;21.80;96.40
16825;DHT22;8529;48.108;-1.706;2023-07-20T12:55:40;21.70;96.80
16825;DHT22;8529;48.108;-1.706;2023-07-20T12:58:08;21.70;97.10
16825;DHT22;8529;48.108;-1.706;2023-07-20T13:00:34;21.70;97.80
16825;DHT22;8529;48.108;-1.706;2023-07-20T13:03:01;21.70;97.40
16825;DHT22;8529;48.108;-1.706;2023-07-20T13:05:30;21.70;96.90
16825;DHT22;8529;48.108;-1.706;2023-07-20T13:07:58;21.70;96.80
16825;DHT22;8529;48.108;-1.706;2023-07-20T13:10:27;21.70;96.10
16825;DHT22;8529;48.108;-1.706;2023-07-20T13:12:54;21.70;95.60
16825;DHT22;8529;48.108;-1.706;2023-07-20T13:15:23;21.70;95.80
16825;DHT22;8529;48.108;-1.706;2023-07-20T13:17:50;21.70;96.70
16825;DHT22;8529;48.108;-1.706;2023-07-20T13:20:17;21.70;96.60
16825;DHT22;8529;48.108;-1.706;2023-07-20T13:22:44;21.70;96.30
16825;DHT22;8529;48.108;-1.706;2023-07-20T13:25:11;21.70;95.90
16825;DHT22;8529;48.108;-1.706;2023-07-20T13:27:40;21.70;95.60
16825;DHT22;8529;48.108;-1.706;2023-07-20T13:30:07;21.70;96.00
16825;DHT22;8529;48.108;-1.706;2023-07-20T13:32:37;21.80;97.50
16825;DHT22;8529;48.108;-1.706;2023-07-20T13:35:04;21.80;96.60
16825;DHT22;8529;48.108;-1.706;2023-07-20T13:37:31;21.80;96.70
16825;DHT22;8529;48.108;-1.706;2023-07-20T13:39:59;21.90;96.60
16825;DHT22;8529;48.108;-1.706;2023-07-20T13:42:25;21.90;97.10
16825;DHT22;8529;48.108;-1.706;2023-07-20T13:44:54;21.90;98.10
16825;DHT22;8529;48.108;-1.706;2023-07-20T13:47:20;21.80;98.50
16825;DHT22;8529;48.108;-1.706;2023-07-20T13:49:47;21.80;97.80
16825;DHT22;8529;48.108;-1.706;2023-07-20T13:52:14;21.90;97.00
16825;DHT22;8529;48.108;-1.706;2023-07-20T13:54:42;21.90;97.30
16825;DHT22;8529;48.108;-1.706;2023-07-20T13:57:09;21.90;97.50
16825;DHT22;8529;48.108;-1.706;2023-07-20T13:59:36;21.90;96.70
16825;DHT22;8529;48.108;-1.706;2023-07-20T14:02:05;21.90;96.40
16825;DHT22;8529;48.108;-1.706;2023-07-20T14:04:32;21.90;96.30
16825;DHT22;8529;48.108;-1.706;2023-07-20T14:06:59;21.90;96.30
16825;DHT22;8529;48.108;-1.706;2023-07-20T14:09:26;21.90;97.00
16825;DHT22;8529;48.108;-1.706;2023-07-20T14:11:53;22.00;97.90
16825;DHT22;8529;48.108;-1.706;2023-07-20T14:14:19;22.00;98.20
16825;DHT22;8529;48.108;-1.706;2023-07-20T14:16:46;22.00;98.60
16825;DHT22;8529;48.108;-1.706;2023-07-20T14:19:15;22.00;98.90
16825;DHT22;8529;48.108;-1.706;2023-07-20T14:21:41;22.00;99.00
16825;DHT22;8529;48.108;-1.706;2023-07-20T14:24:08;22.10;99.30
16825;DHT22;8529;48.108;-1.706;2023-07-20T14:26:35;22.10;99.30
16825;DHT22;8529;48.108;-1.706;2023-07-20T14:29:02;22.10;99.50
16825;DHT22;8529;48.108;-1.706;2023-07-20T14:31:29;22.10;99.30
16825;DHT22;8529;48.108;-1.706;2023-07-20T14:33:56;22.00;99.30
16825;DHT22;8529;48.108;-1.706;2023-07-20T14:36:24;22.00;99.50
16825;DHT22;8529;48.108;-1.706;2023-07-20T14:38:51;22.00;99.60
16825;DHT22;8529;48.108;-1.706;2023-07-20T14:41:18;22.00;99.30
16825;DHT22;8529;48.108;-1.706;2023-07-20T14:43:45;22.00;99.40
16825;DHT22;8529;48.108;-1.706;2023-07-20T14:46:11;22.00;99.50
16825;DHT22;8529;48.108;-1.706;2023-07-20T14:48:38;22.00;99.50
16825;DHT22;8529;48.108;-1.706;2023-07-20T14:51:05;22.00;99.50
16825;DHT22;8529;48.108;-1.706;2023-07-20T14:53:33;22.00;99.50
16825;DHT22;8529;48.108;-1.706;2023-07-20T14:56:00;22.10;99.40
16825;DHT22;8529;48.108;-1.706;2023-07-20T14:58:28;22.00;99.60
16825;DHT22;8529;48.108;-1.706;2023-07-20T15:00:54;22.10;99.70
16825;DHT22;8529;48.108;-1.706;2023-07-20T15:03:21;22.10;99.90
16825;DHT22;8529;48.108;-1.706;2023-07-20T15:05:48;22.10;99.90
16825;DHT22;8529;48.108;-1.706;2023-07-20T15:08:16;22.10;99.90
16825;DHT22;8529;48.108;-1.706;2023-07-20T15:10:45;22.10;99.80
16825;DHT22;8529;48.108;-1.706;2023-07-20T15:13:12;22.10;99.80
16825;DHT22;8529;48.108;-1.706;2023-07-20T15:15:39;22.10;99.80
16825;DHT22;8529;48.108;-1.706;2023-07-20T15:18:07;22.00;99.80
16825;DHT22;8529;48.108;-1.706;2023-07-20T15:20:34;22.00;99.90
16825;DHT22;8529;48.108;-1.706;2023-07-20T15:23:01;22.00;99.70
16825;DHT22;8529;48.108;-1.706;2023-07-20T15:25:28;22.00;99.70
16825;DHT22;8529;48.108;-1.706;2023-07-20T15:27:56;22.00;99.70
16825;DHT22;8529;48.108;-1.706;2023-07-20T15:30:23;21.90;99.90
16825;DHT22;8529;48.108;-1.706;2023-07-20T15:32:50;22.00;99.90
16825;DHT22;8529;48.108;-1.706;2023-07-20T15:35:17;22.00;99.90
16825;DHT22;8529;48.108;-1.706;2023-07-20T15:37:44;21.90;99.60